createdAt,value
2018-06-22T00:02:25.604Z,15.20
2018-06-22T00:04:54.575Z,15.20
2018-06-22T00:07:23.658Z,15.30
2018-06-22T00:09:52.574Z,15.30
2018-06-22T00:12:21.478Z,15.50
2018-06-22T00:14:50.382Z,15.40
2018-06-22T00:17:19.501Z,15.30
2018-06-22T00:19:48.405Z,15.20
2018-06-22T00:22:17.365Z,15.30
2018-06-22T00:24:46.471Z,15.30
2018-06-22T00:27:15.379Z,15.20
2018-06-22T00:29:44.419Z,15.40
2018-06-22T00:32:13.345Z,15.50
2018-06-22T00:34:42.321Z,15.60
2018-06-22T00:37:11.249Z,16.00
2018-06-22T00:39:40.267Z,16.10
2018-06-22T00:42:09.249Z,15.90
2018-06-22T00:44:38.290Z,15.90
2018-06-22T00:47:07.185Z,15.80
2018-06-22T00:49:36.429Z,15.70
2018-06-22T00:52:05.361Z,15.40
2018-06-22T00:54:34.467Z,15.30
2018-06-22T00:57:03.402Z,15.30
2018-06-22T00:59:32.389Z,15.40
2018-06-22T01:02:01.284Z,15.50
2018-06-22T01:04:30.223Z,15.30
2018-06-22T01:06:59.111Z,15.30
2018-06-22T01:09:28.046Z,15.10
2018-06-22T01:11:56.909Z,15.10
2018-06-22T01:14:25.813Z,15.00
2018-06-22T01:16:54.850Z,15.00
2018-06-22T01:19:23.797Z,14.80
2018-06-22T01:21:52.735Z,14.70
2018-06-22T01:24:21.677Z,14.70
2018-06-22T01:26:50.613Z,14.80
2018-06-22T01:29:19.565Z,14.80
2018-06-22T01:31:48.497Z,14.90
2018-06-22T01:34:17.542Z,14.90
2018-06-22T01:39:14.982Z,14.90
2018-06-22T01:41:43.861Z,14.70
2018-06-22T01:44:12.894Z,14.60
2018-06-22T01:46:41.986Z,14.60
2018-06-22T01:49:10.929Z,14.50
2018-06-22T01:51:39.897Z,14.60
2018-06-22T01:54:08.866Z,14.50
2018-06-22T01:56:37.851Z,14.30
2018-06-22T01:59:06.760Z,14.40
2018-06-22T02:01:35.872Z,14.60
2018-06-22T02:04:04.830Z,14.70
2018-06-22T02:06:33.937Z,14.50
2018-06-22T02:09:05.061Z,14.50
2018-06-22T02:11:34.001Z,14.60
2018-06-22T02:14:03.363Z,14.60
2018-06-22T02:16:32.354Z,14.60
2018-06-22T02:19:01.341Z,14.70
2018-06-22T02:21:30.513Z,14.70
2018-06-22T02:23:59.427Z,14.80
2018-06-22T02:26:28.406Z,14.70
2018-06-22T02:28:57.289Z,14.60
2018-06-22T02:31:26.341Z,14.70
2018-06-22T02:33:55.287Z,14.80
2018-06-22T02:36:24.200Z,14.90
2018-06-22T02:38:53.130Z,14.90
2018-06-22T02:41:22.048Z,14.90
2018-06-22T02:43:50.983Z,14.70
2018-06-22T02:46:20.103Z,14.60
2018-06-22T02:48:49.094Z,14.60
2018-06-22T02:51:18.035Z,14.60
2018-06-22T02:53:47.036Z,14.50
2018-06-22T02:56:15.987Z,14.60
2018-06-22T02:58:45.789Z,14.70
2018-06-22T03:01:14.776Z,14.50
2018-06-22T03:03:43.751Z,14.60
2018-06-22T03:06:12.663Z,14.60
2018-06-22T03:11:17.075Z,14.60
2018-06-22T03:13:46.210Z,14.50
2018-06-22T03:16:15.137Z,14.50
2018-06-22T03:18:44.226Z,14.40
2018-06-22T03:21:13.294Z,14.60
2018-06-22T03:26:10.859Z,14.20
2018-06-22T03:28:39.814Z,14.10
2018-06-22T03:31:08.733Z,14.20
2018-06-22T03:33:37.844Z,14.10
2018-06-22T03:36:06.763Z,14.20
2018-06-22T03:41:11.380Z,14.30
2018-06-22T03:43:40.310Z,14.20
2018-06-22T03:46:09.454Z,14.40
2018-06-22T03:48:38.384Z,14.40
2018-06-22T03:51:07.327Z,14.30
2018-06-22T03:53:36.258Z,14.50
2018-06-22T03:56:05.215Z,14.30
2018-06-22T03:58:34.179Z,14.40
2018-06-22T04:01:03.098Z,14.30
2018-06-22T04:03:32.018Z,14.30
2018-06-22T04:06:00.924Z,14.50
2018-06-22T04:08:29.872Z,14.30
2018-06-22T04:10:58.810Z,14.40
2018-06-22T04:13:27.965Z,14.30
2018-06-22T04:15:57.143Z,14.60
2018-06-22T04:18:26.590Z,14.60
2018-06-22T04:20:55.525Z,14.60
2018-06-22T04:23:24.449Z,14.50
2018-06-22T04:25:53.374Z,14.30
2018-06-22T04:28:22.302Z,14.30
2018-06-22T04:30:51.223Z,14.40
2018-06-22T04:33:20.190Z,14.50
2018-06-22T04:35:49.277Z,14.50
2018-06-22T04:38:18.394Z,14.60
2018-06-22T04:40:47.489Z,14.50
2018-06-22T04:45:44.884Z,14.80
2018-06-22T04:48:13.840Z,14.90
2018-06-22T04:50:42.770Z,15.00
2018-06-22T04:53:11.692Z,15.10
2018-06-22T04:55:40.775Z,15.00
2018-06-22T04:58:10.126Z,14.90
2018-06-22T05:00:39.122Z,14.80
2018-06-22T05:05:36.517Z,14.90
2018-06-22T05:08:05.714Z,15.00
2018-06-22T05:10:34.659Z,15.00
2018-06-22T05:13:03.965Z,15.10
2018-06-22T05:15:32.869Z,14.90
2018-06-22T05:18:01.834Z,14.70
2018-06-22T05:20:31.050Z,14.70
2018-06-22T05:25:28.406Z,14.70
2018-06-22T05:27:57.398Z,14.70
2018-06-22T05:30:26.469Z,14.80
2018-06-22T05:32:55.652Z,14.70
2018-06-22T05:35:24.770Z,14.90
2018-06-22T05:37:54.113Z,15.00
2018-06-22T05:40:23.131Z,15.10
2018-06-22T05:42:53.095Z,15.20
2018-06-22T05:45:22.001Z,15.10
2018-06-22T05:47:50.933Z,15.00
2018-06-22T05:50:19.906Z,15.10
2018-06-22T05:52:48.866Z,15.10
2018-06-22T05:55:17.929Z,15.10
2018-06-22T05:57:46.822Z,15.30
2018-06-22T06:00:15.738Z,15.30
2018-06-22T06:02:44.898Z,15.10
2018-06-22T06:05:13.862Z,15.30
2018-06-22T06:07:42.797Z,15.50
2018-06-22T06:10:11.727Z,15.70
2018-06-22T06:12:40.887Z,15.60
2018-06-22T06:15:09.826Z,15.50
2018-06-22T06:17:38.768Z,15.40
2018-06-22T06:20:07.704Z,15.60
2018-06-22T06:22:36.643Z,15.50
2018-06-22T06:25:05.586Z,15.60
2018-06-22T06:27:34.539Z,15.80
2018-06-22T06:32:32.370Z,15.80
2018-06-22T06:35:01.352Z,15.90
2018-06-22T06:37:30.298Z,16.00
2018-06-22T06:39:59.235Z,16.10
2018-06-22T06:42:28.170Z,16.10
2018-06-22T06:44:57.363Z,16.00
2018-06-22T06:47:26.614Z,16.00
2018-06-22T06:49:55.825Z,16.20
2018-06-22T06:52:24.838Z,16.10
2018-06-22T06:54:53.751Z,16.10
2018-06-22T06:57:22.850Z,16.20
2018-06-22T06:59:51.779Z,16.10
2018-06-22T07:02:20.951Z,16.10
2018-06-22T07:04:49.860Z,16.10
2018-06-22T07:07:18.821Z,16.10
2018-06-22T07:12:16.396Z,16.20
2018-06-22T07:14:45.383Z,16.30
2018-06-22T07:17:14.328Z,16.10
2018-06-22T07:19:43.455Z,16.20
2018-06-22T07:22:12.551Z,16.20
2018-06-22T07:24:41.463Z,16.20
2018-06-22T07:27:10.399Z,16.50
2018-06-22T07:29:39.520Z,16.60
2018-06-22T07:32:08.567Z,16.60
2018-06-22T07:34:37.610Z,16.60
2018-06-22T07:37:06.543Z,16.50
2018-06-22T07:39:35.530Z,16.50
2018-06-22T07:42:04.525Z,16.40
2018-06-22T07:44:33.461Z,16.30
2018-06-22T07:47:02.464Z,16.40
2018-06-22T07:49:31.565Z,16.50
2018-06-22T07:54:29.045Z,16.40
2018-06-22T07:56:57.949Z,16.20
2018-06-22T07:59:26.982Z,16.10
2018-06-22T08:01:55.906Z,16.20
2018-06-22T08:04:25.007Z,16.20
2018-06-22T08:06:53.991Z,16.20
2018-06-22T08:09:23.049Z,16.20
2018-06-22T08:11:52.018Z,16.20
2018-06-22T08:14:21.204Z,16.20
2018-06-22T08:19:18.727Z,16.30
2018-06-22T08:21:47.675Z,16.30
2018-06-22T08:24:16.725Z,16.20
2018-06-22T08:26:45.705Z,16.30
2018-06-22T08:29:14.676Z,16.50
2018-06-22T08:31:43.610Z,16.70
2018-06-22T08:34:12.699Z,16.60
2018-06-22T08:36:41.653Z,16.60
2018-06-22T08:39:10.579Z,16.70
2018-06-22T08:41:39.566Z,16.70
2018-06-22T08:44:08.501Z,16.80
2018-06-22T08:46:37.451Z,16.70
2018-06-22T08:49:06.532Z,16.60
2018-06-22T08:51:35.438Z,16.70
2018-06-22T08:54:04.704Z,16.70
2018-06-22T09:01:30.515Z,17.20
2018-06-22T09:03:59.450Z,17.30
2018-06-22T09:06:28.471Z,17.20
2018-06-22T09:08:57.398Z,16.90
2018-06-22T09:11:26.363Z,16.60
2018-06-22T09:13:55.337Z,16.50
2018-06-22T09:16:31.119Z,16.60
2018-06-22T09:19:00.076Z,16.50
2018-06-22T09:21:29.007Z,16.60
2018-06-22T09:23:58.145Z,16.50
2018-06-22T09:26:27.170Z,16.40
2018-06-22T09:31:24.763Z,16.50
2018-06-22T09:33:53.648Z,16.50
2018-06-22T09:36:22.578Z,16.40
2018-06-22T09:38:51.620Z,16.30
2018-06-22T09:41:20.582Z,16.20
2018-06-22T09:43:49.525Z,16.20
2018-06-22T09:46:18.482Z,16.00
2018-06-22T09:51:16.148Z,16.00
2018-06-22T09:53:45.070Z,15.90
2018-06-22T09:56:14.018Z,15.90
2018-06-22T09:58:42.964Z,15.90
2018-06-22T10:01:12.022Z,16.00
2018-06-22T10:03:40.967Z,16.20
2018-06-22T10:06:10.086Z,16.40
2018-06-22T10:08:39.162Z,16.60
2018-06-22T10:11:09.507Z,16.60
2018-06-22T10:13:38.490Z,16.70
2018-06-22T10:16:07.447Z,16.90
2018-06-22T10:18:36.381Z,17.10
2018-06-22T10:21:05.623Z,17.10
2018-06-22T10:23:34.551Z,17.10
2018-06-22T10:26:03.717Z,17.20
2018-06-22T10:28:33.692Z,17.30
2018-06-22T10:31:02.597Z,17.20
2018-06-22T10:33:31.496Z,17.30
2018-06-22T10:36:00.461Z,17.40
2018-06-22T10:38:29.531Z,17.60
2018-06-22T10:43:31.979Z,17.80
2018-06-22T10:46:01.049Z,17.90
2018-06-22T10:48:30.106Z,17.90
2018-06-22T10:50:59.162Z,18.00
2018-06-22T10:53:28.122Z,18.00
2018-06-22T10:55:57.157Z,17.90
2018-06-22T10:58:26.625Z,17.80
2018-06-22T11:03:25.993Z,17.20
2018-06-22T11:05:55.094Z,16.90
2018-06-22T11:08:24.081Z,16.90
2018-06-22T11:10:53.170Z,17.00
2018-06-22T11:13:22.359Z,17.10
2018-06-22T11:15:51.398Z,17.20
2018-06-22T11:20:49.417Z,17.50
2018-06-22T11:25:46.984Z,17.80
2018-06-22T11:28:15.989Z,17.70
2018-06-22T11:30:44.959Z,17.70
2018-06-22T11:33:13.957Z,17.70
2018-06-22T11:35:43.208Z,17.80
2018-06-22T11:38:12.169Z,17.80
2018-06-22T11:40:41.158Z,18.00
2018-06-22T11:43:10.188Z,18.20
2018-06-22T11:45:39.247Z,18.30
2018-06-22T11:48:08.274Z,18.40
2018-06-22T11:50:37.389Z,18.20
2018-06-22T11:53:06.524Z,18.00
2018-06-22T11:55:35.530Z,18.00
2018-06-22T11:58:04.767Z,18.00
2018-06-22T12:00:33.690Z,18.10
2018-06-22T12:03:02.614Z,18.20
2018-06-22T12:05:31.597Z,18.20
2018-06-22T12:08:00.559Z,18.20
2018-06-22T12:10:30.002Z,17.90
2018-06-22T12:12:59.067Z,17.50
2018-06-22T12:15:28.062Z,17.10
2018-06-22T12:17:57.059Z,16.80
2018-06-22T12:20:26.125Z,16.50
2018-06-22T12:22:55.074Z,16.50
2018-06-22T12:25:24.275Z,16.60
2018-06-22T12:27:54.188Z,16.70
2018-06-22T12:30:23.122Z,16.90
2018-06-22T12:32:52.418Z,17.30
2018-06-22T12:37:49.986Z,17.70
2018-06-22T12:40:18.977Z,17.90
2018-06-22T12:42:48.907Z,17.90
2018-06-22T12:45:18.011Z,18.00
2018-06-22T12:47:47.118Z,18.20
2018-06-22T12:50:16.134Z,18.30
2018-06-22T12:52:45.129Z,18.30
2018-06-22T12:55:14.082Z,18.50
2018-06-22T12:57:43.276Z,18.30
2018-06-22T13:00:12.099Z,18.20
2018-06-22T13:02:41.169Z,18.10
2018-06-22T13:05:10.185Z,18.10
2018-06-22T13:07:39.336Z,18.00
2018-06-22T13:12:36.852Z,17.90
2018-06-22T13:15:05.830Z,17.90
2018-06-22T13:17:34.885Z,17.90
2018-06-22T13:20:04.047Z,18.10
2018-06-22T13:22:33.077Z,18.10
2018-06-22T13:25:02.083Z,18.20
2018-06-22T13:27:30.997Z,18.20
2018-06-22T13:29:59.945Z,18.40
2018-06-22T13:32:29.223Z,18.40
2018-06-22T13:34:58.159Z,18.50
2018-06-22T13:37:27.127Z,18.50
2018-06-22T13:39:56.291Z,18.30
2018-06-22T13:42:25.670Z,18.20
2018-06-22T13:44:54.582Z,18.00
2018-06-22T13:47:23.546Z,18.10
2018-06-22T13:49:52.419Z,17.90
2018-06-22T13:52:21.405Z,17.90
2018-06-22T13:54:50.502Z,18.10
2018-06-22T13:57:19.536Z,18.10
2018-06-22T13:59:48.590Z,18.10
2018-06-22T14:02:17.746Z,18.30
2018-06-22T14:04:46.813Z,18.40
2018-06-22T14:07:16.109Z,18.30
2018-06-22T14:09:45.434Z,18.30
2018-06-22T14:12:14.446Z,18.20
2018-06-22T14:17:11.914Z,18.30
2018-06-22T14:19:40.917Z,18.40
2018-06-22T14:24:38.330Z,18.50
2018-06-22T14:27:07.294Z,18.60
2018-06-22T14:29:36.218Z,18.60
2018-06-22T14:32:05.400Z,18.70
2018-06-22T14:34:34.330Z,18.80
2018-06-22T14:39:32.140Z,18.90
2018-06-22T14:42:01.137Z,18.90
2018-06-22T14:44:30.754Z,18.80
2018-06-22T14:46:59.734Z,18.90
2018-06-22T14:49:28.755Z,18.80
2018-06-22T14:51:57.833Z,18.80
2018-06-22T14:54:26.862Z,18.80
2018-06-22T14:59:24.326Z,18.70
2018-06-22T15:01:53.571Z,18.80
2018-06-22T15:06:51.136Z,18.60
2018-06-22T15:09:20.214Z,18.60
2018-06-22T15:11:49.162Z,18.60
2018-06-22T15:14:18.158Z,18.60
2018-06-22T15:16:47.407Z,18.70
2018-06-22T15:19:16.403Z,18.80
2018-06-22T15:21:45.290Z,18.80
2018-06-22T15:24:14.333Z,18.80
2018-06-22T15:26:43.406Z,18.80
2018-06-22T15:29:12.512Z,18.70
2018-06-22T15:31:41.427Z,18.70
2018-06-22T15:34:10.381Z,18.70
2018-06-22T15:36:39.317Z,18.80
2018-06-22T15:39:08.971Z,18.80
2018-06-22T15:41:37.932Z,18.70
2018-06-22T15:44:07.066Z,18.80
2018-06-22T15:46:36.096Z,18.80
2018-06-22T15:49:05.051Z,18.90
2018-06-22T15:51:34.659Z,18.90
2018-06-22T15:54:03.877Z,18.80
2018-06-22T15:56:32.789Z,18.90
2018-06-22T15:59:02.544Z,19.10
2018-06-22T16:01:31.691Z,19.20
2018-06-22T16:04:00.656Z,19.20
2018-06-22T16:06:29.709Z,19.20
2018-06-22T16:08:58.755Z,19.00
2018-06-22T16:11:27.768Z,18.90
2018-06-22T16:13:56.787Z,18.80
2018-06-22T16:16:25.802Z,18.70
2018-06-22T16:18:54.806Z,18.70
2018-06-22T16:21:23.810Z,18.70
2018-06-22T16:23:52.761Z,18.80
2018-06-22T16:26:21.738Z,18.80
2018-06-22T16:31:20.130Z,18.60
2018-06-22T16:33:49.155Z,18.60
2018-06-22T16:36:18.100Z,18.50
2018-06-22T16:38:47.023Z,18.30
2018-06-22T16:41:16.018Z,18.20
2018-06-22T16:46:31.707Z,17.90
2018-06-22T16:49:02.451Z,17.80
2018-06-22T16:51:36.375Z,17.70
2018-06-22T16:54:17.038Z,17.70
2018-06-22T16:56:52.709Z,17.70
2018-06-22T16:59:30.061Z,17.60
2018-06-22T17:02:09.017Z,17.60
2018-06-22T17:04:45.589Z,17.60
2018-06-22T17:07:20.433Z,17.50
2018-06-22T17:09:50.505Z,17.60
2018-06-22T17:12:19.382Z,17.60
2018-06-22T17:14:48.645Z,17.80
2018-06-22T17:17:17.580Z,17.90
2018-06-22T17:19:46.833Z,18.00
2018-06-22T17:24:46.138Z,18.40
2018-06-22T17:27:15.211Z,18.50
2018-06-22T17:29:44.268Z,18.70
2018-06-22T17:32:13.287Z,18.50
2018-06-22T17:34:42.609Z,18.40
2018-06-22T17:37:11.596Z,18.20
2018-06-22T17:39:40.490Z,18.10
2018-06-22T17:42:09.520Z,18.00
2018-06-22T17:44:38.446Z,17.90
2018-06-22T17:47:07.659Z,17.90
2018-06-22T17:49:36.823Z,18.00
2018-06-22T17:52:05.898Z,17.90
2018-06-22T17:57:03.889Z,17.90
2018-06-22T17:59:32.862Z,17.80
2018-06-22T18:02:01.908Z,17.70
2018-06-22T18:04:31.891Z,17.70
2018-06-22T18:07:00.878Z,17.70
2018-06-22T18:11:58.577Z,17.80
2018-06-22T18:14:27.574Z,17.70
2018-06-22T18:16:56.599Z,17.70
2018-06-22T18:19:25.837Z,17.70
2018-06-22T18:21:54.997Z,17.80
2018-06-22T18:24:23.992Z,17.90
2018-06-22T18:26:53.611Z,18.00
2018-06-22T18:29:22.623Z,17.90
2018-06-22T18:31:51.612Z,17.90
2018-06-22T18:34:20.546Z,17.80
2018-06-22T18:36:49.618Z,17.80
2018-06-22T18:39:18.683Z,17.70
2018-06-22T18:41:47.869Z,17.60
2018-06-22T18:46:45.673Z,17.50
2018-06-22T18:49:14.722Z,17.40
2018-06-22T18:51:43.713Z,17.40
2018-06-22T18:54:12.735Z,17.40
2018-06-22T19:01:38.627Z,17.20
2018-06-22T19:04:08.284Z,17.30
2018-06-22T19:06:37.413Z,17.20
2018-06-22T19:09:07.266Z,17.20
2018-06-22T19:11:36.304Z,17.20
2018-06-22T19:14:05.524Z,17.20
2018-06-22T19:16:34.542Z,17.20
2018-06-22T19:19:04.019Z,17.20
2018-06-22T19:21:33.113Z,17.20
2018-06-22T19:26:30.785Z,17.00
2018-06-22T19:28:59.771Z,16.80
2018-06-22T19:31:28.696Z,16.70
2018-06-22T19:33:57.771Z,16.80
2018-06-22T19:36:26.717Z,16.90
2018-06-22T19:41:24.114Z,16.90
2018-06-22T19:43:53.603Z,16.90
2018-06-22T19:46:22.663Z,17.00
2018-06-22T19:48:51.796Z,17.00
2018-06-22T19:51:21.122Z,17.00
2018-06-22T19:53:50.299Z,17.00
2018-06-22T19:56:19.341Z,17.00
2018-06-22T19:58:48.526Z,17.10
2018-06-22T20:01:17.555Z,17.00
2018-06-22T20:03:46.553Z,17.00
2018-06-22T20:06:15.570Z,17.00
2018-06-22T20:08:44.515Z,16.90
2018-06-22T20:11:13.652Z,17.00
2018-06-22T20:13:42.716Z,17.00
2018-06-22T20:16:11.780Z,16.90
2018-06-22T20:18:40.952Z,16.90
2018-06-22T20:21:09.972Z,16.90
2018-06-22T20:23:38.951Z,16.70
2018-06-22T20:26:08.159Z,16.70
2018-06-22T20:28:37.150Z,16.70
2018-06-22T20:31:06.226Z,16.70
2018-06-22T20:33:41.941Z,16.60
2018-06-22T20:36:11.049Z,16.70
2018-06-22T20:41:08.933Z,16.50
2018-06-22T20:43:37.950Z,16.50
2018-06-22T20:46:07.190Z,16.50
2018-06-22T20:48:36.123Z,16.40
2018-06-22T20:51:05.231Z,16.50
2018-06-22T20:53:34.212Z,16.50
2018-06-22T20:56:03.265Z,16.60
2018-06-22T20:58:32.391Z,16.60
2018-06-22T21:01:01.496Z,16.70
2018-06-22T21:03:30.481Z,16.80
2018-06-22T21:05:59.586Z,16.70
2018-06-22T21:08:28.781Z,16.70
2018-06-22T21:10:57.767Z,16.80
2018-06-22T21:13:26.719Z,17.00
2018-06-22T21:15:55.660Z,17.20
2018-06-22T21:18:25.028Z,17.40
2018-06-22T21:20:54.046Z,17.30
2018-06-22T21:23:23.082Z,17.50
2018-06-22T21:25:52.038Z,17.50
2018-06-22T21:28:21.108Z,17.50
2018-06-22T21:30:50.161Z,17.70
2018-06-22T21:33:19.109Z,17.60
2018-06-22T21:35:48.082Z,17.70
2018-06-22T21:38:17.051Z,17.70
2018-06-22T21:40:46.114Z,17.70
2018-06-22T21:43:15.340Z,17.70
2018-06-22T21:48:13.011Z,17.80
2018-06-22T21:50:41.994Z,17.80
2018-06-22T21:53:10.930Z,17.90
2018-06-22T21:55:40.206Z,17.90
2018-06-22T21:58:09.244Z,17.90
2018-06-22T22:00:38.305Z,17.90
2018-06-22T22:03:07.280Z,17.90
2018-06-22T22:05:36.387Z,17.80
2018-06-22T22:08:05.603Z,17.60
2018-06-22T22:10:34.693Z,17.50
2018-06-22T22:13:03.661Z,17.40
2018-06-22T22:15:32.751Z,17.50
2018-06-22T22:18:01.776Z,17.60
2018-06-22T22:20:30.714Z,17.80
2018-06-22T22:22:59.717Z,17.80
2018-06-22T22:25:28.662Z,17.80
2018-06-22T22:27:57.625Z,17.80
2018-06-22T22:30:26.810Z,17.80
2018-06-22T22:32:55.785Z,17.80
2018-06-22T22:35:24.720Z,17.80
2018-06-22T22:37:53.753Z,17.70
2018-06-22T22:40:23.010Z,17.60
2018-06-22T22:42:52.073Z,17.60
2018-06-22T22:45:21.034Z,17.60
2018-06-22T22:47:50.266Z,17.70
2018-06-22T22:50:19.459Z,17.70
2018-06-22T22:52:48.402Z,17.60
2018-06-22T22:55:17.432Z,17.50
2018-06-22T23:00:14.921Z,17.50
2018-06-22T23:02:43.965Z,17.50
2018-06-22T23:05:12.886Z,17.60
2018-06-22T23:07:41.824Z,17.60
2018-06-22T23:10:10.810Z,17.60
2018-06-22T23:12:39.791Z,17.40
2018-06-22T23:15:08.791Z,17.40
2018-06-22T23:17:37.801Z,17.40
2018-06-22T23:20:07.015Z,17.40
2018-06-22T23:22:47.101Z,17.50
2018-06-22T23:25:16.076Z,17.50
2018-06-22T23:27:45.054Z,17.50
2018-06-22T23:30:14.058Z,17.60
2018-06-22T23:35:11.598Z,17.50
2018-06-22T23:37:40.594Z,17.50
2018-06-22T23:40:09.546Z,17.50
2018-06-22T23:45:07.198Z,17.50
2018-06-22T23:47:36.106Z,17.30
2018-06-22T23:52:34.377Z,17.40
2018-06-22T23:57:31.924Z,17.40
